createdAt,value
2022-10-21T00:01:35.669Z,100.00
2022-10-21T00:04:05.659Z,100.00
2022-10-21T00:06:34.701Z,100.00
2022-10-21T00:09:05.422Z,100.00
2022-10-21T00:11:34.547Z,100.00
2022-10-21T00:14:03.589Z,100.00
2022-10-21T00:16:32.669Z,100.00
2022-10-21T00:19:01.740Z,100.00
2022-10-21T00:21:30.899Z,100.00
2022-10-21T00:24:00.401Z,100.00
2022-10-21T00:26:33.800Z,100.00
2022-10-21T00:29:06.603Z,100.00
2022-10-21T00:31:35.953Z,100.00
2022-10-21T00:34:04.983Z,100.00
2022-10-21T00:36:34.027Z,100.00
2022-10-21T00:39:03.097Z,100.00
2022-10-21T00:41:33.528Z,100.00
2022-10-21T00:44:06.384Z,100.00
2022-10-21T00:46:40.424Z,100.00
2022-10-21T00:49:18.906Z,100.00
2022-10-21T00:51:54.627Z,100.00
2022-10-21T00:54:27.588Z,100.00
2022-10-21T00:57:00.390Z,100.00
2022-10-21T00:59:35.187Z,100.00
2022-10-21T01:02:04.714Z,100.00
2022-10-21T01:04:33.709Z,100.00
2022-10-21T01:07:03.726Z,100.00
2022-10-21T01:09:32.876Z,100.00
2022-10-21T01:12:05.277Z,100.00
2022-10-21T01:14:51.191Z,100.00
2022-10-21T01:17:44.818Z,100.00
2022-10-21T01:20:47.244Z,100.00
2022-10-21T01:24:27.279Z,100.00
2022-10-21T01:27:26.184Z,100.00
2022-10-21T01:30:31.471Z,100.00
2022-10-21T01:33:39.513Z,100.00
2022-10-21T01:36:26.343Z,100.00
2022-10-21T01:39:09.015Z,100.00
2022-10-21T01:41:44.743Z,100.00
2022-10-21T01:44:24.669Z,100.00
2022-10-21T01:46:59.934Z,100.00
2022-10-21T01:49:34.607Z,100.00
2022-10-21T01:52:05.072Z,100.00
2022-10-21T01:54:36.870Z,100.00
2022-10-21T01:57:06.985Z,100.00
2022-10-21T01:59:36.720Z,100.00
2022-10-21T02:02:08.416Z,100.00
2022-10-21T02:04:42.576Z,100.00
2022-10-21T02:07:11.852Z,100.00
2022-10-21T02:09:40.965Z,100.00
2022-10-21T02:12:11.670Z,100.00
2022-10-21T02:14:46.374Z,100.00
2022-10-21T02:17:21.058Z,100.00
2022-10-21T02:19:51.924Z,100.00
2022-10-21T02:22:23.732Z,100.00
2022-10-21T02:24:57.472Z,100.00
2022-10-21T02:27:27.036Z,100.00
2022-10-21T02:30:00.527Z,100.00
2022-10-21T02:32:37.645Z,100.00
2022-10-21T02:35:28.701Z,100.00
2022-10-21T02:38:05.927Z,100.00
2022-10-21T02:40:39.076Z,100.00
2022-10-21T02:43:12.968Z,100.00
2022-10-21T02:45:42.215Z,100.00
2022-10-21T02:48:11.282Z,100.00
2022-10-21T02:50:41.860Z,100.00
2022-10-21T02:53:12.175Z,100.00
2022-10-21T02:55:41.235Z,100.00
2022-10-21T02:58:10.347Z,100.00
2022-10-21T03:00:39.485Z,100.00
2022-10-21T03:03:08.516Z,100.00
2022-10-21T03:05:37.646Z,100.00
2022-10-21T03:08:08.319Z,100.00
2022-10-21T03:10:37.365Z,100.00
2022-10-21T03:13:06.558Z,100.00
2022-10-21T03:15:35.745Z,100.00
2022-10-21T03:18:04.918Z,100.00
2022-10-21T03:20:33.966Z,100.00
2022-10-21T03:23:03.024Z,100.00
2022-10-21T03:25:35.729Z,100.00
2022-10-21T03:28:05.222Z,100.00
2022-10-21T03:30:34.216Z,100.00
2022-10-21T03:33:03.375Z,100.00
2022-10-21T03:35:32.469Z,100.00
2022-10-21T03:38:01.543Z,100.00
2022-10-21T03:40:31.032Z,100.00
2022-10-21T03:43:01.671Z,100.00
2022-10-21T03:45:30.796Z,100.00
2022-10-21T03:47:59.972Z,100.00
2022-10-21T03:50:29.012Z,100.00
2022-10-21T03:52:59.351Z,100.00
2022-10-21T03:55:29.051Z,100.00
2022-10-21T03:57:58.205Z,100.00
2022-10-21T04:00:31.632Z,100.00
2022-10-21T04:03:00.974Z,100.00
2022-10-21T04:05:30.084Z,100.00
2022-10-21T04:07:59.177Z,100.00
2022-10-21T04:10:28.148Z,100.00
2022-10-21T04:12:57.199Z,100.00
2022-10-21T04:15:26.386Z,100.00
2022-10-21T04:17:56.812Z,100.00
2022-10-21T04:20:26.893Z,100.00
2022-10-21T04:22:55.955Z,100.00
2022-10-21T04:25:25.124Z,100.00
2022-10-21T04:27:54.197Z,100.00
2022-10-21T04:30:23.511Z,100.00
2022-10-21T04:32:52.614Z,100.00
2022-10-21T04:35:23.369Z,100.00
2022-10-21T04:37:52.492Z,100.00
2022-10-21T04:40:22.528Z,100.00
2022-10-21T04:42:51.816Z,100.00
2022-10-21T04:45:21.390Z,100.00
2022-10-21T04:47:50.477Z,100.00
2022-10-21T04:50:19.777Z,100.00
2022-10-21T04:52:50.259Z,100.00
2022-10-21T04:55:19.582Z,100.00
2022-10-21T04:57:48.710Z,100.00
2022-10-21T05:00:17.955Z,100.00
2022-10-21T05:02:47.075Z,100.00
2022-10-21T05:05:16.204Z,100.00
2022-10-21T05:07:45.341Z,100.00
2022-10-21T05:10:16.001Z,100.00
2022-10-21T05:12:45.088Z,100.00
2022-10-21T05:15:14.706Z,100.00
2022-10-21T05:17:43.907Z,100.00
2022-10-21T05:20:13.614Z,100.00
2022-10-21T05:22:42.790Z,100.00
2022-10-21T05:25:12.265Z,100.00
2022-10-21T05:27:42.802Z,100.00
2022-10-21T05:30:13.453Z,100.00
2022-10-21T05:32:43.068Z,100.00
2022-10-21T05:35:12.729Z,100.00
2022-10-21T05:37:41.776Z,100.00
2022-10-21T05:40:12.047Z,100.00
2022-10-21T05:42:42.475Z,100.00
2022-10-21T05:45:12.916Z,100.00
2022-10-21T05:47:42.760Z,100.00
2022-10-21T05:50:13.471Z,100.00
2022-10-21T05:52:42.908Z,100.00
2022-10-21T05:55:12.098Z,100.00
2022-10-21T05:57:42.633Z,100.00
2022-10-21T06:00:14.022Z,100.00
2022-10-21T06:02:43.135Z,100.00
2022-10-21T06:05:12.183Z,100.00
2022-10-21T06:07:41.653Z,100.00
2022-10-21T06:10:12.203Z,100.00
2022-10-21T06:12:42.649Z,100.00
2022-10-21T06:15:12.591Z,100.00
2022-10-21T06:17:41.775Z,100.00
2022-10-21T06:20:11.698Z,100.00
2022-10-21T06:22:40.768Z,100.00
2022-10-21T06:25:10.496Z,100.00
2022-10-21T06:27:39.781Z,100.00
2022-10-21T06:30:12.596Z,100.00
2022-10-21T06:32:41.630Z,100.00
2022-10-21T06:35:10.810Z,100.00
2022-10-21T06:37:40.339Z,100.00
2022-10-21T06:40:11.014Z,100.00
2022-10-21T06:42:40.678Z,100.00
2022-10-21T06:45:12.292Z,100.00
2022-10-21T06:47:41.696Z,100.00
2022-10-21T06:50:13.161Z,100.00
2022-10-21T06:52:42.632Z,100.00
2022-10-21T06:55:11.794Z,100.00
2022-10-21T06:57:41.078Z,100.00
2022-10-21T07:00:13.943Z,100.00
2022-10-21T07:02:43.189Z,100.00
2022-10-21T07:05:12.205Z,100.00
2022-10-21T07:07:41.630Z,100.00
2022-10-21T07:10:11.184Z,100.00
2022-10-21T07:12:40.370Z,100.00
2022-10-21T07:15:12.290Z,100.00
2022-10-21T07:17:41.672Z,100.00
2022-10-21T07:20:11.572Z,100.00
2022-10-21T07:22:40.835Z,100.00
2022-10-21T07:25:10.482Z,100.00
2022-10-21T07:27:41.242Z,100.00
2022-10-21T07:30:14.068Z,100.00
2022-10-21T07:32:43.131Z,100.00
2022-10-21T07:35:12.181Z,100.00
2022-10-21T07:37:41.489Z,100.00
2022-10-21T07:40:12.675Z,100.00
2022-10-21T07:42:41.804Z,100.00
2022-10-21T07:45:11.509Z,100.00
2022-10-21T07:47:42.130Z,100.00
2022-10-21T07:50:12.660Z,100.00
2022-10-21T07:52:51.929Z,100.00
2022-10-21T07:55:32.905Z,100.00
2022-10-21T07:58:01.972Z,100.00
2022-10-21T08:00:31.051Z,100.00
2022-10-21T08:03:01.546Z,100.00
2022-10-21T08:05:30.607Z,100.00
2022-10-21T08:08:00.008Z,100.00
2022-10-21T08:10:29.114Z,100.00
2022-10-21T08:12:58.205Z,100.00
2022-10-21T08:15:27.318Z,100.00
2022-10-21T08:17:56.396Z,100.00
2022-10-21T08:20:26.932Z,100.00
2022-10-21T08:22:56.016Z,100.00
2022-10-21T08:25:29.964Z,100.00
2022-10-21T08:27:59.084Z,100.00
2022-10-21T08:30:30.022Z,100.00
2022-10-21T08:33:00.256Z,100.00
2022-10-21T08:35:32.018Z,100.00
2022-10-21T08:38:01.532Z,100.00
2022-10-21T08:40:35.524Z,100.00
2022-10-21T08:43:10.733Z,100.00
2022-10-21T08:45:47.304Z,100.00
2022-10-21T08:48:22.497Z,100.00
2022-10-21T08:50:56.561Z,100.00
2022-10-21T08:53:34.124Z,100.00
2022-10-21T08:56:08.672Z,100.00
2022-10-21T08:58:37.772Z,100.00
2022-10-21T09:01:19.503Z,100.00
2022-10-21T09:03:54.666Z,100.00
2022-10-21T09:06:29.319Z,100.00
2022-10-21T09:09:08.072Z,100.00
2022-10-21T09:11:53.069Z,100.00
2022-10-21T09:14:47.841Z,100.00
2022-10-21T09:17:45.916Z,100.00
2022-10-21T09:20:30.096Z,100.00
2022-10-21T09:23:12.263Z,100.00
2022-10-21T09:25:49.383Z,100.00
2022-10-21T09:28:18.547Z,100.00
2022-10-21T09:30:48.807Z,100.00
2022-10-21T09:33:24.428Z,100.00
2022-10-21T09:36:00.296Z,100.00
2022-10-21T09:38:43.518Z,100.00
2022-10-21T09:41:19.300Z,100.00
2022-10-21T09:43:50.783Z,100.00
2022-10-21T09:46:20.713Z,100.00
2022-10-21T09:49:41.561Z,100.00
2022-10-21T09:51:42.820Z,100.00
2022-10-21T09:54:26.224Z,100.00
2022-10-21T09:57:01.441Z,100.00
2022-10-21T09:59:33.238Z,100.00
2022-10-21T10:02:08.732Z,100.00
2022-10-21T10:04:38.041Z,100.00
2022-10-21T10:07:28.341Z,100.00
2022-10-21T10:09:58.866Z,100.00
2022-10-21T10:12:30.457Z,100.00
2022-10-21T10:15:29.339Z,100.00
2022-10-21T10:18:02.008Z,100.00
2022-10-21T10:20:31.213Z,100.00
2022-10-21T10:23:18.550Z,100.00
2022-10-21T10:25:53.181Z,100.00
2022-10-21T10:28:26.663Z,100.00
2022-10-21T10:30:57.166Z,100.00
2022-10-21T10:33:30.464Z,100.00
2022-10-21T10:36:03.326Z,100.00
2022-10-21T10:38:37.465Z,100.00
2022-10-21T10:41:12.312Z,100.00
2022-10-21T10:43:47.468Z,100.00
2022-10-21T10:46:26.746Z,99.18
2022-10-21T10:48:58.450Z,100.00
2022-10-21T10:51:32.352Z,100.00
2022-10-21T10:54:16.643Z,99.37
2022-10-21T10:56:54.595Z,100.00
2022-10-21T10:59:31.754Z,99.08
2022-10-21T11:02:17.411Z,98.09
2022-10-21T11:05:24.187Z,97.65
2022-10-21T11:07:55.251Z,100.00
2022-10-21T11:10:33.566Z,98.44
2022-10-21T11:13:10.752Z,98.56
2022-10-21T11:16:12.410Z,99.29
2022-10-21T11:18:51.341Z,98.83
2022-10-21T11:21:43.737Z,99.53
2022-10-21T11:24:45.601Z,99.11
2022-10-21T11:27:27.133Z,98.92
2022-10-21T11:30:09.463Z,98.46
2022-10-21T11:33:02.141Z,99.72
2022-10-21T11:35:43.702Z,97.96
2022-10-21T11:38:55.045Z,96.88
2022-10-21T11:41:36.266Z,97.82
2022-10-21T11:44:22.041Z,97.24
2022-10-21T11:47:06.794Z,95.76
2022-10-21T11:49:55.700Z,96.85
2022-10-21T11:52:41.659Z,95.61
2022-10-21T11:55:39.665Z,93.89
2022-10-21T11:58:34.140Z,94.73
2022-10-21T12:01:25.585Z,93.00
2022-10-21T12:04:30.413Z,95.81
2022-10-21T12:07:35.415Z,97.38
2022-10-21T12:10:13.161Z,97.68
2022-10-21T12:12:47.635Z,99.40
2022-10-21T12:15:21.655Z,99.45
2022-10-21T12:17:52.281Z,100.00
2022-10-21T12:20:27.235Z,99.39
2022-10-21T12:23:06.516Z,100.00
2022-10-21T12:25:43.559Z,100.00
2022-10-21T12:28:25.431Z,100.00
2022-10-21T12:31:01.610Z,100.00
2022-10-21T12:33:40.075Z,99.50
2022-10-21T12:36:41.033Z,97.95
2022-10-21T12:39:17.858Z,100.00
2022-10-21T12:41:48.956Z,100.00
2022-10-21T12:44:27.665Z,100.00
2022-10-21T12:47:04.054Z,100.00
2022-10-21T12:49:35.987Z,100.00
2022-10-21T12:52:12.672Z,100.00
2022-10-21T12:54:57.116Z,100.00
2022-10-21T12:57:31.756Z,100.00
2022-10-21T13:00:45.420Z,100.00
2022-10-21T13:03:20.515Z,100.00
2022-10-21T13:06:07.166Z,100.00
2022-10-21T13:08:54.262Z,100.00
2022-10-21T13:11:38.488Z,100.00
2022-10-21T13:14:35.453Z,100.00
2022-10-21T13:17:54.571Z,100.00
2022-10-21T13:20:49.146Z,100.00
2022-10-21T13:23:44.455Z,100.00
2022-10-21T13:26:24.171Z,100.00
2022-10-21T13:29:09.418Z,100.00
2022-10-21T13:31:44.097Z,100.00
2022-10-21T13:34:29.937Z,100.00
2022-10-21T13:37:00.319Z,100.00
2022-10-21T13:39:35.565Z,100.00
2022-10-21T13:42:10.729Z,100.00
2022-10-21T13:44:51.473Z,100.00
2022-10-21T13:47:30.210Z,100.00
2022-10-21T13:50:05.598Z,100.00
2022-10-21T13:52:34.640Z,100.00
2022-10-21T13:55:08.005Z,100.00
2022-10-21T13:57:38.196Z,100.00
2022-10-21T14:00:18.515Z,100.00
2022-10-21T14:02:49.190Z,100.00
2022-10-21T14:05:34.279Z,100.00
2022-10-21T14:08:05.582Z,100.00
2022-10-21T14:10:39.473Z,100.00
2022-10-21T14:13:08.714Z,100.00
2022-10-21T14:15:44.752Z,100.00
2022-10-21T14:18:31.240Z,100.00
2022-10-21T14:21:03.255Z,100.00
2022-10-21T14:23:32.554Z,100.00
2022-10-21T14:26:08.153Z,100.00
2022-10-21T14:28:38.828Z,100.00
2022-10-21T14:31:14.383Z,100.00
2022-10-21T14:33:47.019Z,100.00
2022-10-21T14:36:20.543Z,100.00
2022-10-21T14:38:58.723Z,100.00
2022-10-21T14:41:33.916Z,100.00
2022-10-21T14:44:09.336Z,100.00
2022-10-21T14:46:44.871Z,100.00
2022-10-21T14:49:25.084Z,100.00
2022-10-21T14:52:01.733Z,100.00
2022-10-21T14:54:42.087Z,100.00
2022-10-21T14:57:36.316Z,100.00
2022-10-21T15:00:10.254Z,100.00
2022-10-21T15:02:40.077Z,100.00
2022-10-21T15:05:34.615Z,100.00
2022-10-21T15:08:32.187Z,100.00
2022-10-21T15:11:24.477Z,100.00
2022-10-21T15:14:28.760Z,100.00
2022-10-21T15:17:02.088Z,100.00
2022-10-21T15:19:50.288Z,100.00
2022-10-21T15:22:33.985Z,100.00
2022-10-21T15:25:10.127Z,100.00
2022-10-21T15:27:42.588Z,100.00
2022-10-21T15:30:20.000Z,100.00
2022-10-21T15:32:50.845Z,100.00
2022-10-21T15:35:22.829Z,100.00
2022-10-21T15:37:53.999Z,100.00
2022-10-21T15:40:24.274Z,100.00
2022-10-21T15:42:53.680Z,100.00
2022-10-21T15:45:24.400Z,100.00
2022-10-21T15:47:55.611Z,100.00
2022-10-21T15:50:27.526Z,100.00
2022-10-21T15:55:33.607Z,100.00
2022-10-21T15:58:02.796Z,100.00
2022-10-21T16:00:40.050Z,100.00
2022-10-21T16:03:10.180Z,100.00
2022-10-21T16:05:40.337Z,100.00
2022-10-21T16:08:13.289Z,100.00
2022-10-21T16:10:47.905Z,100.00
2022-10-21T16:13:17.735Z,100.00
2022-10-21T16:15:48.376Z,100.00
2022-10-21T16:18:17.362Z,100.00
2022-10-21T16:20:46.485Z,100.00
2022-10-21T16:23:15.624Z,100.00
2022-10-21T16:25:44.721Z,100.00
2022-10-21T16:28:13.823Z,100.00
2022-10-21T16:30:42.988Z,100.00
2022-10-21T16:33:13.437Z,100.00
2022-10-21T16:35:42.944Z,100.00
2022-10-21T16:38:12.598Z,100.00
2022-10-21T16:40:41.668Z,100.00
2022-10-21T16:43:15.058Z,100.00
2022-10-21T16:45:45.440Z,100.00
2022-10-21T16:48:16.001Z,100.00
2022-10-21T16:50:47.580Z,100.00
2022-10-21T16:53:18.439Z,100.00
2022-10-21T16:55:47.645Z,100.00
2022-10-21T16:58:16.705Z,100.00
2022-10-21T17:00:46.942Z,100.00
2022-10-21T17:03:17.399Z,100.00
2022-10-21T17:05:46.461Z,100.00
2022-10-21T17:08:15.488Z,100.00
2022-10-21T17:10:44.682Z,100.00
2022-10-21T17:13:14.214Z,100.00
2022-10-21T17:15:43.477Z,100.00
2022-10-21T17:18:15.550Z,100.00
2022-10-21T17:20:46.487Z,100.00
2022-10-21T17:23:15.751Z,100.00
2022-10-21T17:25:44.728Z,100.00
2022-10-21T17:28:14.410Z,100.00
2022-10-21T17:30:43.467Z,100.00
2022-10-21T17:33:14.264Z,100.00
2022-10-21T17:35:45.431Z,100.00
2022-10-21T17:38:15.064Z,100.00
2022-10-21T17:40:44.136Z,100.00
2022-10-21T17:43:13.239Z,100.00
2022-10-21T17:45:42.419Z,100.00
2022-10-21T17:48:11.915Z,100.00
2022-10-21T17:50:41.043Z,100.00
2022-10-21T17:53:11.661Z,100.00
2022-10-21T17:55:40.671Z,100.00
2022-10-21T17:58:09.690Z,100.00
2022-10-21T18:00:44.485Z,100.00
2022-10-21T18:03:17.979Z,100.00
2022-10-21T18:05:47.589Z,100.00
2022-10-21T18:08:18.084Z,100.00
2022-10-21T18:10:55.240Z,100.00
2022-10-21T18:13:24.909Z,100.00
2022-10-21T18:15:54.811Z,100.00
2022-10-21T18:18:25.865Z,100.00
2022-10-21T18:20:54.859Z,100.00
2022-10-21T18:23:25.290Z,100.00
2022-10-21T18:25:54.353Z,100.00
2022-10-21T18:28:23.749Z,100.00
2022-10-21T18:30:52.963Z,100.00
2022-10-21T18:33:22.110Z,100.00
2022-10-21T18:35:51.539Z,100.00
2022-10-21T18:38:20.733Z,100.00
2022-10-21T18:41:01.909Z,100.00
2022-10-21T18:43:38.604Z,100.00
2022-10-21T18:46:07.667Z,100.00
2022-10-21T18:48:37.570Z,100.00
2022-10-21T18:51:08.021Z,100.00
2022-10-21T18:53:40.052Z,100.00
2022-10-21T18:56:15.081Z,100.00
2022-10-21T18:58:45.431Z,100.00
2022-10-21T19:01:15.755Z,100.00
2022-10-21T19:03:45.645Z,100.00
2022-10-21T19:06:29.762Z,100.00
2022-10-21T19:09:01.155Z,100.00
2022-10-21T19:11:32.157Z,100.00
2022-10-21T19:14:01.217Z,100.00
2022-10-21T19:16:30.248Z,100.00
2022-10-21T19:18:59.749Z,100.00
2022-10-21T19:21:29.126Z,100.00
2022-10-21T19:24:01.424Z,100.00
2022-10-21T19:26:33.179Z,100.00
2022-10-21T19:29:04.909Z,100.00
2022-10-21T19:31:36.091Z,100.00
2022-10-21T19:34:05.486Z,100.00
2022-10-21T19:36:34.969Z,100.00
2022-10-21T19:39:04.026Z,100.00
2022-10-21T19:41:34.771Z,100.00
2022-10-21T19:44:04.428Z,100.00
2022-10-21T19:46:35.994Z,100.00
2022-10-21T19:49:08.068Z,100.00
2022-10-21T19:51:38.436Z,100.00
2022-10-21T19:54:10.403Z,100.00
2022-10-21T19:56:41.536Z,100.00
2022-10-21T19:59:11.875Z,100.00
2022-10-21T20:01:41.215Z,100.00
2022-10-21T20:04:10.689Z,100.00
2022-10-21T20:06:41.103Z,100.00
2022-10-21T20:09:12.808Z,100.00
2022-10-21T20:11:43.675Z,100.00
2022-10-21T20:14:14.168Z,100.00
2022-10-21T20:16:44.244Z,100.00
2022-10-21T20:19:13.903Z,100.00
2022-10-21T20:21:44.115Z,100.00
2022-10-21T20:24:16.550Z,100.00
2022-10-21T20:26:51.173Z,100.00
2022-10-21T20:29:20.510Z,100.00
2022-10-21T20:31:49.610Z,100.00
2022-10-21T20:34:18.720Z,100.00
2022-10-21T20:36:47.819Z,100.00
2022-10-21T20:39:16.858Z,100.00
2022-10-21T20:41:47.412Z,100.00
2022-10-21T20:44:18.006Z,100.00
2022-10-21T20:46:47.220Z,100.00
2022-10-21T20:49:16.384Z,100.00
2022-10-21T20:51:45.346Z,100.00
2022-10-21T20:54:18.695Z,100.00
2022-10-21T20:56:49.341Z,100.00
2022-10-21T20:59:18.591Z,100.00
2022-10-21T21:01:48.906Z,100.00
2022-10-21T21:04:20.785Z,100.00
2022-10-21T21:06:51.567Z,100.00
2022-10-21T21:09:50.032Z,100.00
2022-10-21T21:12:13.412Z,100.00
2022-10-21T21:14:42.484Z,100.00
2022-10-21T21:17:11.755Z,100.00
2022-10-21T21:19:40.951Z,100.00
2022-10-21T21:22:10.165Z,100.00
2022-10-21T21:24:39.145Z,100.00
2022-10-21T21:27:08.308Z,100.00
2022-10-21T21:29:38.774Z,100.00
2022-10-21T21:32:07.839Z,100.00
2022-10-21T21:34:36.870Z,100.00
2022-10-21T21:37:06.248Z,100.00
2022-10-21T21:39:35.288Z,100.00
2022-10-21T21:42:04.401Z,100.00
2022-10-21T21:44:33.375Z,100.00
2022-10-21T21:47:04.630Z,100.00
2022-10-21T21:49:33.663Z,100.00
2022-10-21T21:52:02.793Z,100.00
2022-10-21T21:54:31.827Z,100.00
2022-10-21T21:57:27.191Z,100.00
2022-10-21T21:59:49.924Z,100.00
2022-10-21T22:02:20.376Z,100.00
2022-10-21T22:04:49.464Z,100.00
2022-10-21T22:07:19.348Z,100.00
2022-10-21T22:09:49.308Z,100.00
2022-10-21T22:12:20.886Z,100.00
2022-10-21T22:14:52.310Z,100.00
2022-10-21T22:17:22.863Z,100.00
2022-10-21T22:19:53.951Z,100.00
2022-10-21T22:22:23.139Z,100.00
2022-10-21T22:24:52.293Z,100.00
2022-10-21T22:27:21.344Z,100.00
2022-10-21T22:29:50.355Z,100.00
2022-10-21T22:32:19.505Z,100.00
2022-10-21T22:34:50.184Z,100.00
2022-10-21T22:37:19.175Z,100.00
2022-10-21T22:39:48.196Z,100.00
2022-10-21T22:42:17.231Z,100.00
2022-10-21T22:44:46.250Z,100.00
2022-10-21T22:47:15.777Z,100.00
2022-10-21T22:49:45.324Z,100.00
2022-10-21T22:52:16.003Z,100.00
2022-10-21T22:54:49.604Z,100.00
2022-10-21T22:57:18.948Z,100.00
2022-10-21T22:59:52.885Z,100.00
2022-10-21T23:02:22.311Z,100.00
2022-10-21T23:04:51.350Z,100.00
2022-10-21T23:07:21.839Z,100.00
2022-10-21T23:09:51.411Z,100.00
2022-10-21T23:12:20.629Z,100.00
2022-10-21T23:14:49.671Z,100.00
2022-10-21T23:17:18.715Z,100.00
2022-10-21T23:19:47.767Z,100.00
2022-10-21T23:22:16.811Z,100.00
2022-10-21T23:24:47.417Z,100.00
2022-10-21T23:27:16.456Z,100.00
2022-10-21T23:29:45.542Z,100.00
2022-10-21T23:32:14.801Z,100.00
2022-10-21T23:34:43.834Z,100.00
2022-10-21T23:37:12.908Z,100.00
2022-10-21T23:39:42.068Z,100.00
2022-10-21T23:42:12.485Z,100.00
2022-10-21T23:44:41.524Z,100.00
2022-10-21T23:47:10.570Z,100.00
2022-10-21T23:49:39.677Z,100.00
2022-10-21T23:52:08.703Z,100.00
2022-10-21T23:54:37.968Z,100.00
2022-10-21T23:57:07.007Z,100.00
2022-10-21T23:59:37.474Z,100.00
